sensor_id;sensor_type;location;lat;lon;timestamp;P1;durP1;ratioP1;P2;durP2;ratioP2
28822;SDS011;15961;54.678;9.110;2024-02-16T00:02:32;52.97;;;20.55;;
28822;SDS011;15961;54.678;9.110;2024-02-16T00:05:17;45.33;;;19.63;;
28822;SDS011;15961;54.678;9.110;2024-02-16T00:08:04;54.35;;;21.85;;
28822;SDS011;15961;54.678;9.110;2024-02-16T00:10:50;51.83;;;18.98;;
28822;SDS011;15961;54.678;9.110;2024-02-16T00:13:36;51.03;;;19.52;;
28822;SDS011;15961;54.678;9.110;2024-02-16T00:16:22;52.22;;;19.17;;
28822;SDS011;15961;54.678;9.110;2024-02-16T00:19:08;45.75;;;17.92;;
28822;SDS011;15961;54.678;9.110;2024-02-16T00:21:53;40.03;;;15.20;;
28822;SDS011;15961;54.678;9.110;2024-02-16T00:24:39;52.05;;;17.80;;
28822;SDS011;15961;54.678;9.110;2024-02-16T00:27:25;46.28;;;18.38;;
28822;SDS011;15961;54.678;9.110;2024-02-16T00:30:10;51.15;;;17.05;;
28822;SDS011;15961;54.678;9.110;2024-02-16T00:32:56;54.47;;;21.58;;
28822;SDS011;15961;54.678;9.110;2024-02-16T00:35:42;50.83;;;20.08;;
28822;SDS011;15961;54.678;9.110;2024-02-16T00:38:27;55.60;;;20.92;;
28822;SDS011;15961;54.678;9.110;2024-02-16T00:41:17;51.45;;;17.73;;
28822;SDS011;15961;54.678;9.110;2024-02-16T00:44:04;49.78;;;18.88;;
28822;SDS011;15961;54.678;9.110;2024-02-16T00:46:49;54.67;;;19.38;;
28822;SDS011;15961;54.678;9.110;2024-02-16T00:49:35;44.88;;;17.83;;
28822;SDS011;15961;54.678;9.110;2024-02-16T00:52:21;48.45;;;18.35;;
28822;SDS011;15961;54.678;9.110;2024-02-16T00:55:07;47.83;;;18.90;;
28822;SDS011;15961;54.678;9.110;2024-02-16T00:57:56;44.40;;;17.25;;
28822;SDS011;15961;54.678;9.110;2024-02-16T01:00:42;36.20;;;15.02;;
28822;SDS011;15961;54.678;9.110;2024-02-16T01:03:28;44.00;;;16.25;;
28822;SDS011;15961;54.678;9.110;2024-02-16T01:06:14;34.65;;;15.02;;
28822;SDS011;15961;54.678;9.110;2024-02-16T01:09:03;37.08;;;14.77;;
28822;SDS011;15961;54.678;9.110;2024-02-16T01:11:49;35.70;;;16.33;;
28822;SDS011;15961;54.678;9.110;2024-02-16T01:14:34;30.42;;;14.15;;
28822;SDS011;15961;54.678;9.110;2024-02-16T01:17:20;37.13;;;14.30;;
28822;SDS011;15961;54.678;9.110;2024-02-16T01:20:06;31.50;;;12.95;;
28822;SDS011;15961;54.678;9.110;2024-02-16T01:22:55;36.78;;;13.23;;
28822;SDS011;15961;54.678;9.110;2024-02-16T01:25:41;42.72;;;14.23;;
28822;SDS011;15961;54.678;9.110;2024-02-16T01:28:27;35.38;;;14.88;;
28822;SDS011;15961;54.678;9.110;2024-02-16T01:31:13;36.75;;;16.45;;
28822;SDS011;15961;54.678;9.110;2024-02-16T01:33:58;39.65;;;13.77;;
28822;SDS011;15961;54.678;9.110;2024-02-16T01:36:44;35.35;;;14.55;;
28822;SDS011;15961;54.678;9.110;2024-02-16T01:39:30;33.42;;;13.60;;
28822;SDS011;15961;54.678;9.110;2024-02-16T01:42:15;31.73;;;14.10;;
28822;SDS011;15961;54.678;9.110;2024-02-16T01:45:01;31.30;;;12.45;;
28822;SDS011;15961;54.678;9.110;2024-02-16T01:47:50;33.75;;;13.65;;
28822;SDS011;15961;54.678;9.110;2024-02-16T01:50:36;31.42;;;12.45;;
28822;SDS011;15961;54.678;9.110;2024-02-16T01:53:22;30.08;;;12.35;;
28822;SDS011;15961;54.678;9.110;2024-02-16T01:56:07;30.65;;;13.02;;
28822;SDS011;15961;54.678;9.110;2024-02-16T01:58:53;30.65;;;13.73;;
28822;SDS011;15961;54.678;9.110;2024-02-16T02:01:39;28.80;;;12.95;;
28822;SDS011;15961;54.678;9.110;2024-02-16T02:04:25;28.08;;;11.73;;
28822;SDS011;15961;54.678;9.110;2024-02-16T02:07:15;31.15;;;11.93;;
28822;SDS011;15961;54.678;9.110;2024-02-16T02:10:01;27.58;;;11.85;;
28822;SDS011;15961;54.678;9.110;2024-02-16T02:12:46;23.23;;;11.35;;
28822;SDS011;15961;54.678;9.110;2024-02-16T02:15:32;26.35;;;12.55;;
28822;SDS011;15961;54.678;9.110;2024-02-16T02:18:17;24.95;;;11.77;;
28822;SDS011;15961;54.678;9.110;2024-02-16T02:21:03;24.98;;;11.65;;
28822;SDS011;15961;54.678;9.110;2024-02-16T02:23:50;21.25;;;10.35;;
28822;SDS011;15961;54.678;9.110;2024-02-16T02:26:35;25.38;;;11.73;;
28822;SDS011;15961;54.678;9.110;2024-02-16T02:29:21;30.70;;;11.40;;
28822;SDS011;15961;54.678;9.110;2024-02-16T02:32:07;29.33;;;11.65;;
28822;SDS011;15961;54.678;9.110;2024-02-16T02:34:53;27.45;;;11.32;;
28822;SDS011;15961;54.678;9.110;2024-02-16T02:37:39;27.42;;;11.15;;
28822;SDS011;15961;54.678;9.110;2024-02-16T02:40:26;25.92;;;10.90;;
28822;SDS011;15961;54.678;9.110;2024-02-16T02:43:12;20.95;;;9.95;;
28822;SDS011;15961;54.678;9.110;2024-02-16T02:45:59;23.80;;;10.57;;
28822;SDS011;15961;54.678;9.110;2024-02-16T02:48:45;23.70;;;10.82;;
28822;SDS011;15961;54.678;9.110;2024-02-16T02:51:31;25.83;;;10.63;;
28822;SDS011;15961;54.678;9.110;2024-02-16T02:54:17;23.48;;;9.88;;
28822;SDS011;15961;54.678;9.110;2024-02-16T02:57:03;25.38;;;10.32;;
28822;SDS011;15961;54.678;9.110;2024-02-16T02:59:48;25.75;;;9.88;;
28822;SDS011;15961;54.678;9.110;2024-02-16T03:02:34;22.92;;;9.43;;
28822;SDS011;15961;54.678;9.110;2024-02-16T03:05:23;24.00;;;11.05;;
28822;SDS011;15961;54.678;9.110;2024-02-16T03:08:09;21.67;;;10.27;;
28822;SDS011;15961;54.678;9.110;2024-02-16T03:10:56;21.23;;;9.93;;
28822;SDS011;15961;54.678;9.110;2024-02-16T03:13:42;21.25;;;10.18;;
28822;SDS011;15961;54.678;9.110;2024-02-16T03:16:28;24.67;;;8.80;;
28822;SDS011;15961;54.678;9.110;2024-02-16T03:19:14;18.00;;;9.38;;
28822;SDS011;15961;54.678;9.110;2024-02-16T03:21:59;22.33;;;8.82;;
28822;SDS011;15961;54.678;9.110;2024-02-16T03:24:45;17.42;;;9.13;;
28822;SDS011;15961;54.678;9.110;2024-02-16T03:27:31;18.25;;;10.48;;
28822;SDS011;15961;54.678;9.110;2024-02-16T03:30:16;26.30;;;9.13;;
28822;SDS011;15961;54.678;9.110;2024-02-16T03:33:02;21.77;;;10.05;;
28822;SDS011;15961;54.678;9.110;2024-02-16T03:35:48;21.58;;;9.93;;
28822;SDS011;15961;54.678;9.110;2024-02-16T03:38:34;21.25;;;10.20;;
28822;SDS011;15961;54.678;9.110;2024-02-16T03:41:20;17.92;;;8.70;;
28822;SDS011;15961;54.678;9.110;2024-02-16T03:44:06;15.50;;;8.18;;
28822;SDS011;15961;54.678;9.110;2024-02-16T03:46:52;18.77;;;8.93;;
28822;SDS011;15961;54.678;9.110;2024-02-16T03:49:38;18.63;;;8.55;;
28822;SDS011;15961;54.678;9.110;2024-02-16T03:52:24;16.60;;;9.32;;
28822;SDS011;15961;54.678;9.110;2024-02-16T03:55:10;16.15;;;8.07;;
28822;SDS011;15961;54.678;9.110;2024-02-16T03:57:55;15.48;;;8.38;;
28822;SDS011;15961;54.678;9.110;2024-02-16T04:00:41;18.98;;;8.80;;
28822;SDS011;15961;54.678;9.110;2024-02-16T04:03:30;24.23;;;8.82;;
28822;SDS011;15961;54.678;9.110;2024-02-16T04:06:15;15.73;;;7.68;;
28822;SDS011;15961;54.678;9.110;2024-02-16T04:09:01;19.25;;;8.05;;
28822;SDS011;15961;54.678;9.110;2024-02-16T04:11:46;25.45;;;8.60;;
28822;SDS011;15961;54.678;9.110;2024-02-16T04:14:35;20.00;;;8.30;;
28822;SDS011;15961;54.678;9.110;2024-02-16T04:17:21;17.02;;;8.43;;
28822;SDS011;15961;54.678;9.110;2024-02-16T04:20:06;20.13;;;8.38;;
28822;SDS011;15961;54.678;9.110;2024-02-16T04:22:53;18.48;;;8.65;;
28822;SDS011;15961;54.678;9.110;2024-02-16T04:25:41;19.35;;;8.40;;
28822;SDS011;15961;54.678;9.110;2024-02-16T04:28:30;17.20;;;8.85;;
28822;SDS011;15961;54.678;9.110;2024-02-16T04:31:15;14.13;;;8.07;;
28822;SDS011;15961;54.678;9.110;2024-02-16T04:34:01;17.13;;;8.07;;
28822;SDS011;15961;54.678;9.110;2024-02-16T04:36:50;14.52;;;6.95;;
28822;SDS011;15961;54.678;9.110;2024-02-16T04:39:39;15.80;;;7.38;;
28822;SDS011;15961;54.678;9.110;2024-02-16T04:42:25;13.55;;;8.07;;
28822;SDS011;15961;54.678;9.110;2024-02-16T04:45:11;17.48;;;7.72;;
28822;SDS011;15961;54.678;9.110;2024-02-16T04:48:01;15.25;;;7.57;;
28822;SDS011;15961;54.678;9.110;2024-02-16T04:53:33;16.58;;;7.07;;
28822;SDS011;15961;54.678;9.110;2024-02-16T04:56:19;14.55;;;8.45;;
28822;SDS011;15961;54.678;9.110;2024-02-16T04:59:05;12.40;;;7.25;;
28822;SDS011;15961;54.678;9.110;2024-02-16T05:01:51;15.95;;;7.32;;
28822;SDS011;15961;54.678;9.110;2024-02-16T05:04:37;15.05;;;7.10;;
28822;SDS011;15961;54.678;9.110;2024-02-16T05:07:23;13.63;;;6.80;;
28822;SDS011;15961;54.678;9.110;2024-02-16T05:10:11;13.52;;;7.00;;
28822;SDS011;15961;54.678;9.110;2024-02-16T05:12:57;15.88;;;6.85;;
28822;SDS011;15961;54.678;9.110;2024-02-16T05:15:43;17.23;;;7.47;;
28822;SDS011;15961;54.678;9.110;2024-02-16T05:18:29;23.95;;;8.30;;
28822;SDS011;15961;54.678;9.110;2024-02-16T05:21:15;16.30;;;8.15;;
28822;SDS011;15961;54.678;9.110;2024-02-16T05:24:01;16.38;;;6.72;;
28822;SDS011;15961;54.678;9.110;2024-02-16T05:26:47;12.38;;;6.85;;
28822;SDS011;15961;54.678;9.110;2024-02-16T05:29:33;16.92;;;7.20;;
28822;SDS011;15961;54.678;9.110;2024-02-16T05:32:19;14.05;;;7.30;;
28822;SDS011;15961;54.678;9.110;2024-02-16T05:35:05;17.35;;;6.85;;
28822;SDS011;15961;54.678;9.110;2024-02-16T05:37:58;18.15;;;7.78;;
28822;SDS011;15961;54.678;9.110;2024-02-16T05:40:49;14.13;;;6.88;;
28822;SDS011;15961;54.678;9.110;2024-02-16T05:43:42;12.20;;;6.72;;
28822;SDS011;15961;54.678;9.110;2024-02-16T05:46:28;10.60;;;6.40;;
28822;SDS011;15961;54.678;9.110;2024-02-16T05:49:14;12.18;;;6.53;;
28822;SDS011;15961;54.678;9.110;2024-02-16T05:52:01;13.43;;;6.88;;
28822;SDS011;15961;54.678;9.110;2024-02-16T05:55:02;12.85;;;7.50;;
28822;SDS011;15961;54.678;9.110;2024-02-16T05:57:49;14.43;;;7.15;;
28822;SDS011;15961;54.678;9.110;2024-02-16T06:00:35;14.27;;;6.78;;
28822;SDS011;15961;54.678;9.110;2024-02-16T06:03:20;16.20;;;7.65;;
28822;SDS011;15961;54.678;9.110;2024-02-16T06:06:07;12.93;;;5.90;;
28822;SDS011;15961;54.678;9.110;2024-02-16T06:08:53;12.20;;;6.93;;
28822;SDS011;15961;54.678;9.110;2024-02-16T06:11:39;13.02;;;7.22;;
28822;SDS011;15961;54.678;9.110;2024-02-16T06:14:24;13.48;;;5.63;;
28822;SDS011;15961;54.678;9.110;2024-02-16T06:17:10;10.32;;;5.90;;
28822;SDS011;15961;54.678;9.110;2024-02-16T06:19:56;13.13;;;6.15;;
28822;SDS011;15961;54.678;9.110;2024-02-16T06:22:42;9.73;;;5.28;;
28822;SDS011;15961;54.678;9.110;2024-02-16T06:25:27;14.18;;;6.25;;
28822;SDS011;15961;54.678;9.110;2024-02-16T06:28:13;14.93;;;5.90;;
28822;SDS011;15961;54.678;9.110;2024-02-16T06:31:02;13.38;;;5.57;;
28822;SDS011;15961;54.678;9.110;2024-02-16T06:33:47;11.52;;;5.15;;
28822;SDS011;15961;54.678;9.110;2024-02-16T06:36:33;12.45;;;6.35;;
28822;SDS011;15961;54.678;9.110;2024-02-16T06:39:19;14.95;;;5.72;;
28822;SDS011;15961;54.678;9.110;2024-02-16T06:42:08;13.38;;;5.97;;
28822;SDS011;15961;54.678;9.110;2024-02-16T06:44:54;11.70;;;5.60;;
28822;SDS011;15961;54.678;9.110;2024-02-16T06:47:39;14.07;;;5.93;;
28822;SDS011;15961;54.678;9.110;2024-02-16T06:50:25;11.82;;;5.80;;
28822;SDS011;15961;54.678;9.110;2024-02-16T06:53:10;10.95;;;5.07;;
28822;SDS011;15961;54.678;9.110;2024-02-16T06:55:59;12.32;;;5.38;;
28822;SDS011;15961;54.678;9.110;2024-02-16T06:58:45;7.80;;;5.43;;
28822;SDS011;15961;54.678;9.110;2024-02-16T07:01:31;7.18;;;4.68;;
28822;SDS011;15961;54.678;9.110;2024-02-16T07:04:19;10.23;;;5.05;;
28822;SDS011;15961;54.678;9.110;2024-02-16T07:07:05;8.65;;;4.72;;
28822;SDS011;15961;54.678;9.110;2024-02-16T07:09:51;7.75;;;4.40;;
28822;SDS011;15961;54.678;9.110;2024-02-16T07:12:37;11.43;;;5.50;;
28822;SDS011;15961;54.678;9.110;2024-02-16T07:15:23;6.03;;;3.95;;
28822;SDS011;15961;54.678;9.110;2024-02-16T07:18:08;8.68;;;4.80;;
28822;SDS011;15961;54.678;9.110;2024-02-16T07:20:55;10.07;;;4.10;;
28822;SDS011;15961;54.678;9.110;2024-02-16T07:23:40;8.02;;;4.32;;
28822;SDS011;15961;54.678;9.110;2024-02-16T07:26:26;8.85;;;4.63;;
28822;SDS011;15961;54.678;9.110;2024-02-16T07:29:11;7.63;;;4.57;;
28822;SDS011;15961;54.678;9.110;2024-02-16T07:32:01;9.75;;;4.00;;
28822;SDS011;15961;54.678;9.110;2024-02-16T07:34:48;14.02;;;6.00;;
28822;SDS011;15961;54.678;9.110;2024-02-16T07:37:34;7.07;;;3.60;;
28822;SDS011;15961;54.678;9.110;2024-02-16T07:40:20;7.18;;;4.25;;
28822;SDS011;15961;54.678;9.110;2024-02-16T07:43:05;9.23;;;3.55;;
28822;SDS011;15961;54.678;9.110;2024-02-16T07:45:51;6.20;;;4.10;;
28822;SDS011;15961;54.678;9.110;2024-02-16T07:48:40;10.75;;;4.40;;
28822;SDS011;15961;54.678;9.110;2024-02-16T07:51:25;7.28;;;4.32;;
28822;SDS011;15961;54.678;9.110;2024-02-16T07:54:11;10.55;;;4.38;;
28822;SDS011;15961;54.678;9.110;2024-02-16T07:56:56;7.32;;;3.88;;
28822;SDS011;15961;54.678;9.110;2024-02-16T07:59:44;10.15;;;4.13;;
28822;SDS011;15961;54.678;9.110;2024-02-16T08:02:30;7.78;;;4.03;;
28822;SDS011;15961;54.678;9.110;2024-02-16T08:05:16;10.70;;;4.30;;
28822;SDS011;15961;54.678;9.110;2024-02-16T08:08:04;9.57;;;4.65;;
28822;SDS011;15961;54.678;9.110;2024-02-16T08:10:50;6.82;;;4.50;;
28822;SDS011;15961;54.678;9.110;2024-02-16T08:13:36;6.03;;;4.05;;
28822;SDS011;15961;54.678;9.110;2024-02-16T08:16:25;8.90;;;4.55;;
28822;SDS011;15961;54.678;9.110;2024-02-16T08:19:11;8.07;;;4.45;;
28822;SDS011;15961;54.678;9.110;2024-02-16T08:21:59;8.68;;;3.95;;
28822;SDS011;15961;54.678;9.110;2024-02-16T08:24:48;7.97;;;4.53;;
28822;SDS011;15961;54.678;9.110;2024-02-16T08:27:35;8.02;;;4.05;;
28822;SDS011;15961;54.678;9.110;2024-02-16T08:30:20;8.25;;;4.15;;
28822;SDS011;15961;54.678;9.110;2024-02-16T08:33:07;9.30;;;4.22;;
28822;SDS011;15961;54.678;9.110;2024-02-16T08:35:53;7.00;;;4.05;;
28822;SDS011;15961;54.678;9.110;2024-02-16T08:38:39;7.97;;;4.47;;
28822;SDS011;15961;54.678;9.110;2024-02-16T08:41:24;9.23;;;4.00;;
28822;SDS011;15961;54.678;9.110;2024-02-16T08:44:10;9.52;;;4.10;;
28822;SDS011;15961;54.678;9.110;2024-02-16T08:46:56;12.25;;;4.93;;
28822;SDS011;15961;54.678;9.110;2024-02-16T08:49:41;9.40;;;4.05;;
28822;SDS011;15961;54.678;9.110;2024-02-16T08:52:27;8.73;;;4.53;;
28822;SDS011;15961;54.678;9.110;2024-02-16T08:55:13;5.95;;;4.15;;
28822;SDS011;15961;54.678;9.110;2024-02-16T08:57:58;13.73;;;4.50;;
28822;SDS011;15961;54.678;9.110;2024-02-16T09:00:44;9.07;;;3.80;;
28822;SDS011;15961;54.678;9.110;2024-02-16T09:03:31;9.82;;;4.32;;
28822;SDS011;15961;54.678;9.110;2024-02-16T09:06:23;7.70;;;3.80;;
28822;SDS011;15961;54.678;9.110;2024-02-16T09:09:09;10.13;;;4.15;;
28822;SDS011;15961;54.678;9.110;2024-02-16T09:11:58;7.82;;;3.58;;
28822;SDS011;15961;54.678;9.110;2024-02-16T09:14:44;10.68;;;4.57;;
28822;SDS011;15961;54.678;9.110;2024-02-16T09:17:30;6.65;;;4.00;;
28822;SDS011;15961;54.678;9.110;2024-02-16T09:20:15;6.20;;;3.83;;
28822;SDS011;15961;54.678;9.110;2024-02-16T09:23:01;10.75;;;4.78;;
28822;SDS011;15961;54.678;9.110;2024-02-16T09:25:49;6.15;;;3.55;;
28822;SDS011;15961;54.678;9.110;2024-02-16T09:28:39;9.00;;;4.32;;
28822;SDS011;15961;54.678;9.110;2024-02-16T09:31:26;10.55;;;4.35;;
28822;SDS011;15961;54.678;9.110;2024-02-16T09:34:12;6.57;;;4.18;;
28822;SDS011;15961;54.678;9.110;2024-02-16T09:36:58;7.38;;;3.70;;
28822;SDS011;15961;54.678;9.110;2024-02-16T09:39:44;6.80;;;3.53;;
28822;SDS011;15961;54.678;9.110;2024-02-16T09:42:29;7.75;;;3.88;;
28822;SDS011;15961;54.678;9.110;2024-02-16T09:45:15;9.90;;;4.55;;
28822;SDS011;15961;54.678;9.110;2024-02-16T09:48:01;9.30;;;4.20;;
28822;SDS011;15961;54.678;9.110;2024-02-16T09:50:48;8.02;;;4.25;;
28822;SDS011;15961;54.678;9.110;2024-02-16T09:53:35;7.38;;;4.13;;
28822;SDS011;15961;54.678;9.110;2024-02-16T09:56:21;5.85;;;3.60;;
28822;SDS011;15961;54.678;9.110;2024-02-16T09:59:07;9.65;;;4.30;;
28822;SDS011;15961;54.678;9.110;2024-02-16T10:02:03;7.28;;;4.05;;
28822;SDS011;15961;54.678;9.110;2024-02-16T10:04:49;9.55;;;3.53;;
28822;SDS011;15961;54.678;9.110;2024-02-16T10:07:35;12.93;;;4.65;;
28822;SDS011;15961;54.678;9.110;2024-02-16T10:10:24;7.10;;;3.55;;
28822;SDS011;15961;54.678;9.110;2024-02-16T10:13:10;9.48;;;4.05;;
28822;SDS011;15961;54.678;9.110;2024-02-16T10:16:06;11.82;;;4.25;;
28822;SDS011;15961;54.678;9.110;2024-02-16T10:18:54;7.43;;;4.40;;
28822;SDS011;15961;54.678;9.110;2024-02-16T10:21:42;8.75;;;3.63;;
28822;SDS011;15961;54.678;9.110;2024-02-16T10:24:28;8.48;;;3.95;;
28822;SDS011;15961;54.678;9.110;2024-02-16T10:27:17;8.88;;;4.07;;
28822;SDS011;15961;54.678;9.110;2024-02-16T10:30:03;10.18;;;4.20;;
28822;SDS011;15961;54.678;9.110;2024-02-16T10:32:55;8.68;;;4.18;;
28822;SDS011;15961;54.678;9.110;2024-02-16T10:35:43;9.88;;;4.47;;
28822;SDS011;15961;54.678;9.110;2024-02-16T10:38:29;9.63;;;5.10;;
28822;SDS011;15961;54.678;9.110;2024-02-16T10:41:16;9.40;;;3.80;;
28822;SDS011;15961;54.678;9.110;2024-02-16T10:44:02;12.65;;;6.38;;
28822;SDS011;15961;54.678;9.110;2024-02-16T10:46:49;9.52;;;4.03;;
28822;SDS011;15961;54.678;9.110;2024-02-16T10:49:36;10.05;;;5.38;;
28822;SDS011;15961;54.678;9.110;2024-02-16T10:52:22;9.93;;;3.80;;
28822;SDS011;15961;54.678;9.110;2024-02-16T10:55:08;6.68;;;3.80;;
28822;SDS011;15961;54.678;9.110;2024-02-16T10:57:55;7.85;;;4.13;;
28822;SDS011;15961;54.678;9.110;2024-02-16T11:00:55;9.90;;;4.10;;
28822;SDS011;15961;54.678;9.110;2024-02-16T11:03:41;10.32;;;4.57;;
28822;SDS011;15961;54.678;9.110;2024-02-16T11:06:26;7.57;;;4.15;;
28822;SDS011;15961;54.678;9.110;2024-02-16T11:09:22;7.55;;;3.83;;
28822;SDS011;15961;54.678;9.110;2024-02-16T11:12:13;9.63;;;4.38;;
28822;SDS011;15961;54.678;9.110;2024-02-16T11:15:00;9.63;;;4.50;;
28822;SDS011;15961;54.678;9.110;2024-02-16T11:17:48;10.48;;;4.68;;
28822;SDS011;15961;54.678;9.110;2024-02-16T11:20:38;12.20;;;4.28;;
28822;SDS011;15961;54.678;9.110;2024-02-16T11:23:28;10.68;;;5.22;;
28822;SDS011;15961;54.678;9.110;2024-02-16T11:26:15;12.90;;;5.68;;
28822;SDS011;15961;54.678;9.110;2024-02-16T11:29:02;11.32;;;4.57;;
28822;SDS011;15961;54.678;9.110;2024-02-16T11:31:48;8.32;;;4.57;;
28822;SDS011;15961;54.678;9.110;2024-02-16T11:34:34;7.53;;;4.85;;
28822;SDS011;15961;54.678;9.110;2024-02-16T11:37:19;9.98;;;4.25;;
28822;SDS011;15961;54.678;9.110;2024-02-16T11:40:05;10.85;;;4.57;;
28822;SDS011;15961;54.678;9.110;2024-02-16T11:43:00;13.23;;;5.72;;
28822;SDS011;15961;54.678;9.110;2024-02-16T11:45:48;9.57;;;4.55;;
28822;SDS011;15961;54.678;9.110;2024-02-16T11:48:34;11.10;;;6.07;;
28822;SDS011;15961;54.678;9.110;2024-02-16T11:51:19;9.88;;;4.70;;
28822;SDS011;15961;54.678;9.110;2024-02-16T11:54:05;10.82;;;5.22;;
28822;SDS011;15961;54.678;9.110;2024-02-16T11:56:54;14.98;;;5.60;;
28822;SDS011;15961;54.678;9.110;2024-02-16T11:59:40;9.88;;;5.47;;
28822;SDS011;15961;54.678;9.110;2024-02-16T12:02:25;11.00;;;4.88;;
28822;SDS011;15961;54.678;9.110;2024-02-16T12:05:13;8.32;;;5.55;;
28822;SDS011;15961;54.678;9.110;2024-02-16T12:07:59;10.32;;;5.63;;
28822;SDS011;15961;54.678;9.110;2024-02-16T12:10:48;10.48;;;5.32;;
28822;SDS011;15961;54.678;9.110;2024-02-16T12:13:34;8.25;;;5.03;;
28822;SDS011;15961;54.678;9.110;2024-02-16T12:16:20;10.57;;;6.10;;
28822;SDS011;15961;54.678;9.110;2024-02-16T12:19:06;14.38;;;6.28;;
28822;SDS011;15961;54.678;9.110;2024-02-16T12:21:53;13.40;;;5.53;;
28822;SDS011;15961;54.678;9.110;2024-02-16T12:24:47;9.63;;;5.97;;
28822;SDS011;15961;54.678;9.110;2024-02-16T12:27:34;12.63;;;6.03;;
28822;SDS011;15961;54.678;9.110;2024-02-16T12:30:19;13.80;;;5.78;;
28822;SDS011;15961;54.678;9.110;2024-02-16T12:33:05;9.57;;;5.22;;
28822;SDS011;15961;54.678;9.110;2024-02-16T12:35:51;12.20;;;6.57;;
28822;SDS011;15961;54.678;9.110;2024-02-16T12:38:37;13.45;;;6.13;;
28822;SDS011;15961;54.678;9.110;2024-02-16T12:41:26;10.18;;;5.47;;
28822;SDS011;15961;54.678;9.110;2024-02-16T12:44:11;11.75;;;6.10;;
28822;SDS011;15961;54.678;9.110;2024-02-16T12:46:57;12.93;;;7.38;;
28822;SDS011;15961;54.678;9.110;2024-02-16T12:49:42;11.18;;;5.78;;
28822;SDS011;15961;54.678;9.110;2024-02-16T12:52:28;13.93;;;6.85;;
28822;SDS011;15961;54.678;9.110;2024-02-16T12:55:14;17.50;;;5.93;;
28822;SDS011;15961;54.678;9.110;2024-02-16T12:58:01;11.73;;;6.32;;
28822;SDS011;15961;54.678;9.110;2024-02-16T13:00:47;14.05;;;6.68;;
28822;SDS011;15961;54.678;9.110;2024-02-16T13:03:36;11.18;;;6.05;;
28822;SDS011;15961;54.678;9.110;2024-02-16T13:06:23;13.85;;;6.65;;
28822;SDS011;15961;54.678;9.110;2024-02-16T13:09:09;12.95;;;6.53;;
28822;SDS011;15961;54.678;9.110;2024-02-16T13:11:54;14.10;;;6.97;;
28822;SDS011;15961;54.678;9.110;2024-02-16T13:14:40;13.73;;;7.40;;
28822;SDS011;15961;54.678;9.110;2024-02-16T13:17:25;11.85;;;6.85;;
28822;SDS011;15961;54.678;9.110;2024-02-16T13:20:11;16.58;;;7.22;;
28822;SDS011;15961;54.678;9.110;2024-02-16T13:22:59;14.15;;;6.93;;
28822;SDS011;15961;54.678;9.110;2024-02-16T13:25:45;17.30;;;7.10;;
28822;SDS011;15961;54.678;9.110;2024-02-16T13:28:30;15.20;;;8.55;;
28822;SDS011;15961;54.678;9.110;2024-02-16T13:31:16;14.68;;;7.65;;
28822;SDS011;15961;54.678;9.110;2024-02-16T13:34:02;19.40;;;8.40;;
28822;SDS011;15961;54.678;9.110;2024-02-16T13:36:47;19.55;;;8.60;;
28822;SDS011;15961;54.678;9.110;2024-02-16T13:39:33;17.90;;;8.50;;
28822;SDS011;15961;54.678;9.110;2024-02-16T13:42:19;20.48;;;7.95;;
28822;SDS011;15961;54.678;9.110;2024-02-16T13:45:05;19.70;;;9.23;;
28822;SDS011;15961;54.678;9.110;2024-02-16T13:47:51;17.75;;;8.65;;
28822;SDS011;15961;54.678;9.110;2024-02-16T13:50:37;19.58;;;9.52;;
28822;SDS011;15961;54.678;9.110;2024-02-16T13:53:25;21.38;;;8.43;;
28822;SDS011;15961;54.678;9.110;2024-02-16T13:56:11;22.40;;;9.52;;
28822;SDS011;15961;54.678;9.110;2024-02-16T13:58:57;23.33;;;9.43;;
28822;SDS011;15961;54.678;9.110;2024-02-16T14:01:42;20.17;;;10.60;;
28822;SDS011;15961;54.678;9.110;2024-02-16T14:04:31;12.90;;;7.90;;
28822;SDS011;15961;54.678;9.110;2024-02-16T14:07:17;21.30;;;8.52;;
28822;SDS011;15961;54.678;9.110;2024-02-16T14:10:03;26.00;;;10.43;;
28822;SDS011;15961;54.678;9.110;2024-02-16T14:12:48;21.25;;;9.52;;
28822;SDS011;15961;54.678;9.110;2024-02-16T14:15:34;18.02;;;8.70;;
28822;SDS011;15961;54.678;9.110;2024-02-16T14:18:20;18.63;;;7.70;;
28822;SDS011;15961;54.678;9.110;2024-02-16T14:21:05;15.48;;;7.32;;
28822;SDS011;15961;54.678;9.110;2024-02-16T14:23:51;16.60;;;7.30;;
28822;SDS011;15961;54.678;9.110;2024-02-16T14:26:37;16.30;;;6.57;;
28822;SDS011;15961;54.678;9.110;2024-02-16T14:29:23;15.40;;;6.22;;
28822;SDS011;15961;54.678;9.110;2024-02-16T14:32:11;14.77;;;6.30;;
28822;SDS011;15961;54.678;9.110;2024-02-16T14:34:57;34.55;;;18.00;;
28822;SDS011;15961;54.678;9.110;2024-02-16T14:37:43;81.80;;;41.20;;
28822;SDS011;15961;54.678;9.110;2024-02-16T14:40:28;25.50;;;14.95;;
28822;SDS011;15961;54.678;9.110;2024-02-16T14:43:14;19.20;;;6.30;;
28822;SDS011;15961;54.678;9.110;2024-02-16T14:46:00;21.27;;;12.07;;
28822;SDS011;15961;54.678;9.110;2024-02-16T14:48:45;25.92;;;14.20;;
28822;SDS011;15961;54.678;9.110;2024-02-16T14:51:33;59.80;;;31.23;;
28822;SDS011;15961;54.678;9.110;2024-02-16T14:54:20;58.10;;;24.63;;
28822;SDS011;15961;54.678;9.110;2024-02-16T14:57:06;73.55;;;33.78;;
28822;SDS011;15961;54.678;9.110;2024-02-16T14:59:51;51.03;;;26.80;;
28822;SDS011;15961;54.678;9.110;2024-02-16T15:02:42;78.05;;;38.33;;
28822;SDS011;15961;54.678;9.110;2024-02-16T15:05:27;31.20;;;14.43;;
28822;SDS011;15961;54.678;9.110;2024-02-16T15:08:13;19.80;;;10.50;;
28822;SDS011;15961;54.678;9.110;2024-02-16T15:11:00;22.85;;;13.50;;
28822;SDS011;15961;54.678;9.110;2024-02-16T15:13:46;33.88;;;22.42;;
28822;SDS011;15961;54.678;9.110;2024-02-16T15:16:34;45.15;;;27.58;;
28822;SDS011;15961;54.678;9.110;2024-02-16T15:19:19;49.45;;;26.33;;
28822;SDS011;15961;54.678;9.110;2024-02-16T15:22:05;45.80;;;24.13;;
28822;SDS011;15961;54.678;9.110;2024-02-16T15:24:54;35.35;;;17.38;;
28822;SDS011;15961;54.678;9.110;2024-02-16T15:27:39;21.15;;;13.15;;
28822;SDS011;15961;54.678;9.110;2024-02-16T15:30:25;44.05;;;27.38;;
28822;SDS011;15961;54.678;9.110;2024-02-16T15:33:11;29.60;;;14.20;;
28822;SDS011;15961;54.678;9.110;2024-02-16T15:35:59;35.15;;;18.45;;
28822;SDS011;15961;54.678;9.110;2024-02-16T15:38:48;274.50;;;99.00;;
28822;SDS011;15961;54.678;9.110;2024-02-16T15:41:34;52.22;;;41.80;;
28822;SDS011;15961;54.678;9.110;2024-02-16T15:44:19;52.17;;;32.95;;
28822;SDS011;15961;54.678;9.110;2024-02-16T15:47:05;36.33;;;21.75;;
28822;SDS011;15961;54.678;9.110;2024-02-16T15:49:50;23.50;;;16.23;;
28822;SDS011;15961;54.678;9.110;2024-02-16T15:52:36;23.40;;;15.85;;
28822;SDS011;15961;54.678;9.110;2024-02-16T15:55:22;24.63;;;16.65;;
28822;SDS011;15961;54.678;9.110;2024-02-16T15:58:08;19.40;;;6.93;;
28822;SDS011;15961;54.678;9.110;2024-02-16T16:00:54;12.77;;;6.57;;
28822;SDS011;15961;54.678;9.110;2024-02-16T16:03:40;27.48;;;15.10;;
28822;SDS011;15961;54.678;9.110;2024-02-16T16:06:26;17.45;;;8.90;;
28822;SDS011;15961;54.678;9.110;2024-02-16T16:09:11;19.98;;;11.85;;
28822;SDS011;15961;54.678;9.110;2024-02-16T16:11:57;19.88;;;7.30;;
28822;SDS011;15961;54.678;9.110;2024-02-16T16:14:43;19.02;;;7.95;;
28822;SDS011;15961;54.678;9.110;2024-02-16T16:17:28;19.08;;;9.10;;
28822;SDS011;15961;54.678;9.110;2024-02-16T16:20:14;16.02;;;8.20;;
28822;SDS011;15961;54.678;9.110;2024-02-16T16:23:00;17.20;;;9.57;;
28822;SDS011;15961;54.678;9.110;2024-02-16T16:25:47;21.75;;;6.18;;
28822;SDS011;15961;54.678;9.110;2024-02-16T16:28:32;16.67;;;6.57;;
28822;SDS011;15961;54.678;9.110;2024-02-16T16:31:18;30.00;;;11.77;;